sensor_id;sensor_type;location;lat;lon;timestamp;pressure;altitude;pressure_sealevel;temperature;humidity
27984;BME280;15317;50.360;8.726;2023-04-25T00:00:01;98779.72;;;7.96;100.00
27984;BME280;15317;50.360;8.726;2023-04-25T00:05:06;98775.31;;;7.95;100.00
27984;BME280;15317;50.360;8.726;2023-04-25T00:10:10;98771.25;;;7.99;100.00
27984;BME280;15317;50.360;8.726;2023-04-25T00:15:15;98767.25;;;8.03;100.00
27984;BME280;15317;50.360;8.726;2023-04-25T00:20:18;98762.84;;;8.02;100.00
27984;BME280;15317;50.360;8.726;2023-04-25T00:25:21;98775.66;;;8.00;100.00
27984;BME280;15317;50.360;8.726;2023-04-25T00:30:26;98778.84;;;7.96;100.00
27984;BME280;15317;50.360;8.726;2023-04-25T00:35:30;98776.09;;;7.87;100.00
27984;BME280;15317;50.360;8.726;2023-04-25T00:40:35;98766.78;;;7.82;100.00
27984;BME280;15317;50.360;8.726;2023-04-25T00:45:40;98780.81;;;7.85;100.00
27984;BME280;15317;50.360;8.726;2023-04-25T00:50:50;98772.69;;;7.77;100.00
27984;BME280;15317;50.360;8.726;2023-04-25T00:55:54;98779.09;;;7.76;100.00
27984;BME280;15317;50.360;8.726;2023-04-25T01:00:59;98787.50;;;7.73;100.00
27984;BME280;15317;50.360;8.726;2023-04-25T01:06:03;98782.94;;;7.74;100.00
27984;BME280;15317;50.360;8.726;2023-04-25T01:11:06;98793.47;;;7.85;100.00
27984;BME280;15317;50.360;8.726;2023-04-25T01:16:11;98797.53;;;7.81;100.00
27984;BME280;15317;50.360;8.726;2023-04-25T01:21:15;98788.56;;;7.80;100.00
27984;BME280;15317;50.360;8.726;2023-04-25T01:26:18;98779.59;;;7.80;100.00
27984;BME280;15317;50.360;8.726;2023-04-25T01:31:23;98779.19;;;7.67;100.00
27984;BME280;15317;50.360;8.726;2023-04-25T01:36:28;98775.47;;;7.68;100.00
27984;BME280;15317;50.360;8.726;2023-04-25T01:41:32;98781.53;;;7.62;100.00
27984;BME280;15317;50.360;8.726;2023-04-25T01:46:36;98782.16;;;7.56;100.00
27984;BME280;15317;50.360;8.726;2023-04-25T01:51:41;98773.34;;;7.53;100.00
27984;BME280;15317;50.360;8.726;2023-04-25T01:56:50;98771.22;;;7.39;100.00
27984;BME280;15317;50.360;8.726;2023-04-25T02:01:53;98776.47;;;7.41;100.00
27984;BME280;15317;50.360;8.726;2023-04-25T02:06:58;98775.56;;;7.32;100.00
27984;BME280;15317;50.360;8.726;2023-04-25T02:12:01;98780.25;;;7.30;100.00
27984;BME280;15317;50.360;8.726;2023-04-25T02:17:04;98779.66;;;7.19;100.00
27984;BME280;15317;50.360;8.726;2023-04-25T02:22:09;98772.03;;;7.14;100.00
27984;BME280;15317;50.360;8.726;2023-04-25T02:27:12;98780.50;;;7.19;100.00
27984;BME280;15317;50.360;8.726;2023-04-25T02:32:15;98787.97;;;7.25;100.00
27984;BME280;15317;50.360;8.726;2023-04-25T02:37:19;98792.47;;;7.17;100.00
27984;BME280;15317;50.360;8.726;2023-04-25T02:42:22;98792.94;;;7.12;100.00
27984;BME280;15317;50.360;8.726;2023-04-25T02:47:26;98787.06;;;7.17;100.00
27984;BME280;15317;50.360;8.726;2023-04-25T02:52:31;98779.44;;;7.12;100.00
27984;BME280;15317;50.360;8.726;2023-04-25T02:57:34;98772.09;;;7.04;100.00
27984;BME280;15317;50.360;8.726;2023-04-25T03:02:37;98778.50;;;6.86;100.00
27984;BME280;15317;50.360;8.726;2023-04-25T03:07:41;98785.06;;;6.83;100.00
27984;BME280;15317;50.360;8.726;2023-04-25T03:12:45;98777.72;;;6.75;100.00
27984;BME280;15317;50.360;8.726;2023-04-25T03:17:48;98784.97;;;6.57;100.00
27984;BME280;15317;50.360;8.726;2023-04-25T03:22:53;98779.06;;;6.44;100.00
27984;BME280;15317;50.360;8.726;2023-04-25T03:27:56;98781.44;;;6.29;100.00
27984;BME280;15317;50.360;8.726;2023-04-25T03:33:00;98784.88;;;6.22;100.00
27984;BME280;15317;50.360;8.726;2023-04-25T03:38:05;98778.72;;;6.02;100.00
27984;BME280;15317;50.360;8.726;2023-04-25T03:43:08;98779.63;;;5.83;100.00
27984;BME280;15317;50.360;8.726;2023-04-25T03:48:11;98800.66;;;5.70;100.00
27984;BME280;15317;50.360;8.726;2023-04-25T03:53:15;98801.50;;;5.61;100.00
27984;BME280;15317;50.360;8.726;2023-04-25T03:58:18;98811.59;;;5.59;100.00
27984;BME280;15317;50.360;8.726;2023-04-25T04:03:21;98821.66;;;5.57;100.00
27984;BME280;15317;50.360;8.726;2023-04-25T04:08:26;98819.13;;;5.46;100.00
27984;BME280;15317;50.360;8.726;2023-04-25T04:13:29;98825.38;;;5.37;100.00
27984;BME280;15317;50.360;8.726;2023-04-25T04:18:32;98832.47;;;5.38;100.00
27984;BME280;15317;50.360;8.726;2023-04-25T04:23:37;98831.91;;;5.25;100.00
27984;BME280;15317;50.360;8.726;2023-04-25T04:28:47;98833.59;;;5.26;100.00
27984;BME280;15317;50.360;8.726;2023-04-25T04:33:50;98840.81;;;5.35;100.00
27984;BME280;15317;50.360;8.726;2023-04-25T04:38:55;98843.50;;;5.35;100.00
27984;BME280;15317;50.360;8.726;2023-04-25T04:43:58;98835.16;;;5.38;100.00
27984;BME280;15317;50.360;8.726;2023-04-25T04:49:04;98850.16;;;5.40;100.00
27984;BME280;15317;50.360;8.726;2023-04-25T04:54:08;98853.44;;;5.44;100.00
27984;BME280;15317;50.360;8.726;2023-04-25T04:59:11;98846.75;;;5.48;100.00
27984;BME280;15317;50.360;8.726;2023-04-25T05:04:15;98847.16;;;5.53;100.00
27984;BME280;15317;50.360;8.726;2023-04-25T05:09:19;98850.59;;;5.55;100.00
27984;BME280;15317;50.360;8.726;2023-04-25T05:14:22;98851.56;;;5.64;100.00
27984;BME280;15317;50.360;8.726;2023-04-25T05:19:25;98850.53;;;5.84;100.00
27984;BME280;15317;50.360;8.726;2023-04-25T05:24:30;98854.50;;;5.99;100.00
27984;BME280;15317;50.360;8.726;2023-04-25T05:29:33;98854.78;;;6.06;100.00
27984;BME280;15317;50.360;8.726;2023-04-25T05:34:37;98860.16;;;6.06;100.00
27984;BME280;15317;50.360;8.726;2023-04-25T05:39:41;98856.41;;;6.26;100.00
27984;BME280;15317;50.360;8.726;2023-04-25T05:44:44;98861.47;;;6.29;100.00
27984;BME280;15317;50.360;8.726;2023-04-25T05:49:47;98868.81;;;6.46;100.00
27984;BME280;15317;50.360;8.726;2023-04-25T05:54:51;98878.41;;;6.58;100.00
27984;BME280;15317;50.360;8.726;2023-04-25T05:59:54;98879.75;;;6.72;100.00
27984;BME280;15317;50.360;8.726;2023-04-25T06:04:58;98891.63;;;6.79;100.00
27984;BME280;15317;50.360;8.726;2023-04-25T06:10:05;98888.66;;;7.00;100.00
27984;BME280;15317;50.360;8.726;2023-04-25T06:15:09;98893.75;;;7.03;100.00
27984;BME280;15317;50.360;8.726;2023-04-25T06:20:28;98897.03;;;7.24;100.00
27984;BME280;15317;50.360;8.726;2023-04-25T06:25:33;98897.81;;;7.34;100.00
27984;BME280;15317;50.360;8.726;2023-04-25T06:30:36;98894.56;;;7.31;95.67
27984;BME280;15317;50.360;8.726;2023-04-25T06:35:39;98900.50;;;7.52;96.31
27984;BME280;15317;50.360;8.726;2023-04-25T06:40:43;98896.63;;;7.90;96.45
27984;BME280;15317;50.360;8.726;2023-04-25T06:45:47;98900.06;;;8.00;93.67
27984;BME280;15317;50.360;8.726;2023-04-25T06:50:50;98912.94;;;8.50;90.80
27984;BME280;15317;50.360;8.726;2023-04-25T06:55:55;98911.03;;;8.76;88.19
27984;BME280;15317;50.360;8.726;2023-04-25T07:00:58;98916.56;;;9.00;86.95
27984;BME280;15317;50.360;8.726;2023-04-25T07:06:01;98919.53;;;9.39;82.50
27984;BME280;15317;50.360;8.726;2023-04-25T07:11:06;98932.28;;;10.12;73.99
27984;BME280;15317;50.360;8.726;2023-04-25T07:16:09;98942.72;;;10.80;72.42
27984;BME280;15317;50.360;8.726;2023-04-25T07:21:13;98942.28;;;12.00;69.66
27984;BME280;15317;50.360;8.726;2023-04-25T07:26:17;98942.25;;;13.19;66.50
27984;BME280;15317;50.360;8.726;2023-04-25T07:31:22;98942.81;;;12.18;64.46
27984;BME280;15317;50.360;8.726;2023-04-25T07:36:26;98952.59;;;12.27;64.35
27984;BME280;15317;50.360;8.726;2023-04-25T07:41:31;98958.34;;;11.56;68.34
27984;BME280;15317;50.360;8.726;2023-04-25T07:46:34;98971.38;;;11.37;69.12
27984;BME280;15317;50.360;8.726;2023-04-25T07:51:37;98968.34;;;11.32;67.65
27984;BME280;15317;50.360;8.726;2023-04-25T07:56:42;98964.31;;;10.73;71.87
27984;BME280;15317;50.360;8.726;2023-04-25T08:01:54;98974.56;;;11.10;70.20
27984;BME280;15317;50.360;8.726;2023-04-25T08:06:59;98990.09;;;11.32;68.99
27984;BME280;15317;50.360;8.726;2023-04-25T08:12:03;99003.59;;;12.10;69.27
27984;BME280;15317;50.360;8.726;2023-04-25T08:17:07;98993.41;;;11.81;66.50
27984;BME280;15317;50.360;8.726;2023-04-25T08:22:10;99001.56;;;12.50;63.81
27984;BME280;15317;50.360;8.726;2023-04-25T08:27:15;98998.59;;;11.99;63.60
27984;BME280;15317;50.360;8.726;2023-04-25T08:32:18;99007.88;;;13.32;59.60
27984;BME280;15317;50.360;8.726;2023-04-25T08:37:23;99023.63;;;13.15;58.94
27984;BME280;15317;50.360;8.726;2023-04-25T08:42:28;99012.66;;;13.00;58.85
27984;BME280;15317;50.360;8.726;2023-04-25T08:47:34;99018.59;;;13.99;60.30
27984;BME280;15317;50.360;8.726;2023-04-25T08:52:43;99018.00;;;13.67;54.65
27984;BME280;15317;50.360;8.726;2023-04-25T08:57:48;99021.47;;;14.33;52.04
27984;BME280;15317;50.360;8.726;2023-04-25T09:02:52;99026.97;;;15.10;52.70
27984;BME280;15317;50.360;8.726;2023-04-25T09:07:55;99053.75;;;14.87;51.50
27984;BME280;15317;50.360;8.726;2023-04-25T09:13:05;99050.25;;;14.50;53.52
27984;BME280;15317;50.360;8.726;2023-04-25T09:18:08;99050.84;;;13.59;52.59
27984;BME280;15317;50.360;8.726;2023-04-25T09:23:14;99070.84;;;13.07;56.99
27984;BME280;15317;50.360;8.726;2023-04-25T09:28:25;99072.13;;;12.82;55.72
27984;BME280;15317;50.360;8.726;2023-04-25T09:33:33;99078.84;;;12.03;57.24
27984;BME280;15317;50.360;8.726;2023-04-25T09:38:40;99088.41;;;11.99;59.97
27984;BME280;15317;50.360;8.726;2023-04-25T09:43:46;99097.16;;;11.86;63.84
27984;BME280;15317;50.360;8.726;2023-04-25T09:48:50;99103.75;;;11.92;66.16
27984;BME280;15317;50.360;8.726;2023-04-25T09:53:55;99105.81;;;12.66;59.19
27984;BME280;15317;50.360;8.726;2023-04-25T09:58:59;99113.81;;;13.28;57.39
27984;BME280;15317;50.360;8.726;2023-04-25T10:04:04;99122.09;;;13.64;51.25
27984;BME280;15317;50.360;8.726;2023-04-25T10:09:09;99128.53;;;13.19;53.41
27984;BME280;15317;50.360;8.726;2023-04-25T10:14:13;99137.16;;;12.62;51.94
27984;BME280;15317;50.360;8.726;2023-04-25T10:19:17;99130.59;;;11.95;52.13
27984;BME280;15317;50.360;8.726;2023-04-25T10:24:21;99137.25;;;11.93;54.88
27984;BME280;15317;50.360;8.726;2023-04-25T10:29:26;99129.28;;;12.45;54.28
27984;BME280;15317;50.360;8.726;2023-04-25T10:34:39;99125.34;;;14.18;52.52
27984;BME280;15317;50.360;8.726;2023-04-25T10:39:43;99124.56;;;14.82;46.71
27984;BME280;15317;50.360;8.726;2023-04-25T10:45:04;99135.53;;;15.59;48.15
27984;BME280;15317;50.360;8.726;2023-04-25T10:50:08;99136.81;;;14.86;49.04
27984;BME280;15317;50.360;8.726;2023-04-25T10:55:11;99138.69;;;14.64;46.31
27984;BME280;15317;50.360;8.726;2023-04-25T11:00:18;99149.53;;;14.07;49.79
27984;BME280;15317;50.360;8.726;2023-04-25T11:05:30;99144.00;;;13.85;50.96
27984;BME280;15317;50.360;8.726;2023-04-25T11:10:42;99139.09;;;13.52;50.21
27984;BME280;15317;50.360;8.726;2023-04-25T11:15:51;99136.88;;;13.55;52.39
27984;BME280;15317;50.360;8.726;2023-04-25T11:21:13;99133.16;;;14.07;50.55
27984;BME280;15317;50.360;8.726;2023-04-25T11:26:16;99143.97;;;14.66;48.62
27984;BME280;15317;50.360;8.726;2023-04-25T11:31:21;99149.00;;;13.97;48.47
27984;BME280;15317;50.360;8.726;2023-04-25T11:36:25;99146.00;;;12.87;51.47
27984;BME280;15317;50.360;8.726;2023-04-25T11:41:28;99143.72;;;12.53;52.01
27984;BME280;15317;50.360;8.726;2023-04-25T11:46:34;99154.47;;;11.85;52.59
27984;BME280;15317;50.360;8.726;2023-04-25T11:51:38;99157.03;;;11.70;54.33
27984;BME280;15317;50.360;8.726;2023-04-25T11:56:42;99168.09;;;11.77;53.77
27984;BME280;15317;50.360;8.726;2023-04-25T12:01:49;99166.47;;;11.99;53.96
27984;BME280;15317;50.360;8.726;2023-04-25T12:06:55;99182.75;;;11.60;54.45
27984;BME280;15317;50.360;8.726;2023-04-25T12:11:59;99176.63;;;11.49;54.16
27984;BME280;15317;50.360;8.726;2023-04-25T12:17:06;99180.59;;;11.94;53.78
27984;BME280;15317;50.360;8.726;2023-04-25T12:22:21;99170.31;;;12.20;55.84
27984;BME280;15317;50.360;8.726;2023-04-25T12:27:25;99175.91;;;13.41;51.95
27984;BME280;15317;50.360;8.726;2023-04-25T12:32:32;99177.84;;;14.50;47.57
27984;BME280;15317;50.360;8.726;2023-04-25T12:37:35;99175.38;;;14.55;45.41
27984;BME280;15317;50.360;8.726;2023-04-25T12:42:38;99177.78;;;14.43;46.83
27984;BME280;15317;50.360;8.726;2023-04-25T12:47:43;99176.84;;;14.07;48.09
27984;BME280;15317;50.360;8.726;2023-04-25T12:52:47;99189.69;;;13.77;50.95
27984;BME280;15317;50.360;8.726;2023-04-25T12:57:50;99191.63;;;14.27;46.77
27984;BME280;15317;50.360;8.726;2023-04-25T13:02:55;99179.38;;;14.95;48.81
27984;BME280;15317;50.360;8.726;2023-04-25T13:07:58;99192.28;;;15.01;45.67
27984;BME280;15317;50.360;8.726;2023-04-25T13:13:02;99216.75;;;15.09;45.84
27984;BME280;15317;50.360;8.726;2023-04-25T13:18:07;99198.00;;;14.85;43.43
27984;BME280;15317;50.360;8.726;2023-04-25T13:23:11;99183.41;;;14.78;49.61
27984;BME280;15317;50.360;8.726;2023-04-25T13:28:14;99192.06;;;15.02;44.71
27984;BME280;15317;50.360;8.726;2023-04-25T13:33:19;99209.53;;;14.00;47.75
27984;BME280;15317;50.360;8.726;2023-04-25T13:38:23;99203.53;;;13.38;49.29
27984;BME280;15317;50.360;8.726;2023-04-25T13:43:27;99198.28;;;12.37;49.97
27984;BME280;15317;50.360;8.726;2023-04-25T13:48:32;99194.13;;;12.18;49.53
27984;BME280;15317;50.360;8.726;2023-04-25T13:53:35;99201.13;;;12.13;49.74
27984;BME280;15317;50.360;8.726;2023-04-25T13:58:38;99199.16;;;11.99;51.71
27984;BME280;15317;50.360;8.726;2023-04-25T14:03:42;99210.19;;;11.97;50.81
27984;BME280;15317;50.360;8.726;2023-04-25T14:08:45;99217.38;;;11.90;48.19
27984;BME280;15317;50.360;8.726;2023-04-25T14:13:48;99218.78;;;11.78;48.88
27984;BME280;15317;50.360;8.726;2023-04-25T14:18:53;99223.50;;;11.68;53.82
27984;BME280;15317;50.360;8.726;2023-04-25T14:23:57;99229.78;;;11.93;52.20
27984;BME280;15317;50.360;8.726;2023-04-25T14:29:00;99235.38;;;12.07;52.90
27984;BME280;15317;50.360;8.726;2023-04-25T14:34:05;99228.25;;;11.90;52.02
27984;BME280;15317;50.360;8.726;2023-04-25T14:39:08;99238.31;;;11.65;52.05
27984;BME280;15317;50.360;8.726;2023-04-25T14:44:11;99242.53;;;11.92;50.73
27984;BME280;15317;50.360;8.726;2023-04-25T14:49:16;99235.66;;;12.12;49.63
27984;BME280;15317;50.360;8.726;2023-04-25T14:54:19;99236.84;;;12.18;50.49
27984;BME280;15317;50.360;8.726;2023-04-25T14:59:23;99244.41;;;12.39;51.06
27984;BME280;15317;50.360;8.726;2023-04-25T15:04:27;99246.16;;;12.23;47.91
27984;BME280;15317;50.360;8.726;2023-04-25T15:09:32;99254.66;;;12.28;49.28
27984;BME280;15317;50.360;8.726;2023-04-25T15:14:35;99249.72;;;12.32;50.32
27984;BME280;15317;50.360;8.726;2023-04-25T15:19:40;99251.53;;;12.48;49.29
27984;BME280;15317;50.360;8.726;2023-04-25T15:24:43;99253.06;;;12.42;49.50
27984;BME280;15317;50.360;8.726;2023-04-25T15:29:46;99256.09;;;13.09;47.92
27984;BME280;15317;50.360;8.726;2023-04-25T15:34:50;99256.41;;;13.37;43.46
27984;BME280;15317;50.360;8.726;2023-04-25T15:40:01;99266.13;;;12.55;47.94
27984;BME280;15317;50.360;8.726;2023-04-25T15:45:07;99260.38;;;12.03;46.93
27984;BME280;15317;50.360;8.726;2023-04-25T15:50:13;99263.34;;;11.53;52.78
27984;BME280;15317;50.360;8.726;2023-04-25T15:55:17;99262.81;;;11.17;49.99
27984;BME280;15317;50.360;8.726;2023-04-25T16:00:21;99265.69;;;10.99;51.46
27984;BME280;15317;50.360;8.726;2023-04-25T16:05:26;99271.09;;;10.83;50.73
27984;BME280;15317;50.360;8.726;2023-04-25T16:10:29;99275.50;;;10.76;50.92
27984;BME280;15317;50.360;8.726;2023-04-25T16:15:32;99279.03;;;10.68;52.38
27984;BME280;15317;50.360;8.726;2023-04-25T16:20:38;99273.78;;;10.24;56.60
27984;BME280;15317;50.360;8.726;2023-04-25T16:25:41;99277.31;;;10.17;56.69
27984;BME280;15317;50.360;8.726;2023-04-25T16:30:45;99275.03;;;10.38;55.77
27984;BME280;15317;50.360;8.726;2023-04-25T16:35:49;99273.72;;;10.42;55.94
27984;BME280;15317;50.360;8.726;2023-04-25T16:40:54;99266.34;;;10.93;52.75
27984;BME280;15317;50.360;8.726;2023-04-25T16:45:57;99270.47;;;11.05;55.26
27984;BME280;15317;50.360;8.726;2023-04-25T16:51:01;99272.81;;;10.92;54.79
27984;BME280;15317;50.360;8.726;2023-04-25T16:56:05;99285.56;;;10.41;53.63
27984;BME280;15317;50.360;8.726;2023-04-25T17:01:09;99287.47;;;10.15;53.85
27984;BME280;15317;50.360;8.726;2023-04-25T17:06:18;99294.22;;;10.11;54.01
27984;BME280;15317;50.360;8.726;2023-04-25T17:11:21;99302.00;;;10.06;54.35
27984;BME280;15317;50.360;8.726;2023-04-25T17:16:33;99306.66;;;9.87;53.09
27984;BME280;15317;50.360;8.726;2023-04-25T17:21:38;99310.66;;;9.83;52.78
27984;BME280;15317;50.360;8.726;2023-04-25T17:26:41;99305.59;;;9.80;53.17
27984;BME280;15317;50.360;8.726;2023-04-25T17:31:46;99319.03;;;9.90;55.73
27984;BME280;15317;50.360;8.726;2023-04-25T17:36:50;99327.34;;;9.88;54.49
27984;BME280;15317;50.360;8.726;2023-04-25T17:41:53;99323.84;;;9.52;55.03
27984;BME280;15317;50.360;8.726;2023-04-25T17:46:57;99331.50;;;9.57;55.89
27984;BME280;15317;50.360;8.726;2023-04-25T17:52:03;99332.06;;;9.43;57.85
27984;BME280;15317;50.360;8.726;2023-04-25T17:57:07;99340.34;;;9.24;58.83
27984;BME280;15317;50.360;8.726;2023-04-25T18:02:10;99337.50;;;9.07;58.70
27984;BME280;15317;50.360;8.726;2023-04-25T18:07:14;99353.50;;;9.01;59.14
27984;BME280;15317;50.360;8.726;2023-04-25T18:12:18;99360.81;;;9.00;57.97
27984;BME280;15317;50.360;8.726;2023-04-25T18:17:22;99365.94;;;8.76;56.26
27984;BME280;15317;50.360;8.726;2023-04-25T18:22:27;99368.63;;;8.49;56.95
27984;BME280;15317;50.360;8.726;2023-04-25T18:27:30;99368.88;;;8.18;59.28
27984;BME280;15317;50.360;8.726;2023-04-25T18:32:34;99375.63;;;8.05;60.78
27984;BME280;15317;50.360;8.726;2023-04-25T18:37:39;99388.78;;;7.71;64.36
27984;BME280;15317;50.360;8.726;2023-04-25T18:42:43;99389.50;;;7.53;63.82
27984;BME280;15317;50.360;8.726;2023-04-25T18:47:46;99395.75;;;7.44;64.01
27984;BME280;15317;50.360;8.726;2023-04-25T18:52:51;99407.13;;;7.29;66.19
27984;BME280;15317;50.360;8.726;2023-04-25T18:57:54;99416.47;;;7.05;69.01
27984;BME280;15317;50.360;8.726;2023-04-25T19:02:58;99415.53;;;6.76;70.91
27984;BME280;15317;50.360;8.726;2023-04-25T19:08:05;99431.97;;;6.63;73.11
27984;BME280;15317;50.360;8.726;2023-04-25T19:13:09;99435.91;;;6.50;73.14
27984;BME280;15317;50.360;8.726;2023-04-25T19:18:12;99436.97;;;6.38;76.75
27984;BME280;15317;50.360;8.726;2023-04-25T19:23:16;99437.22;;;6.04;81.66
27984;BME280;15317;50.360;8.726;2023-04-25T19:28:20;99453.59;;;5.91;85.39
27984;BME280;15317;50.360;8.726;2023-04-25T19:33:24;99442.16;;;5.67;85.61
27984;BME280;15317;50.360;8.726;2023-04-25T19:38:28;99450.56;;;5.53;87.48
27984;BME280;15317;50.360;8.726;2023-04-25T19:43:31;99461.94;;;5.25;91.20
27984;BME280;15317;50.360;8.726;2023-04-25T19:48:34;99462.94;;;5.12;92.89
27984;BME280;15317;50.360;8.726;2023-04-25T19:53:39;99461.03;;;4.92;95.18
27984;BME280;15317;50.360;8.726;2023-04-25T19:58:42;99460.81;;;4.84;96.30
27984;BME280;15317;50.360;8.726;2023-04-25T20:03:45;99461.44;;;4.76;97.33
27984;BME280;15317;50.360;8.726;2023-04-25T20:08:52;99467.91;;;4.74;97.58
27984;BME280;15317;50.360;8.726;2023-04-25T20:13:55;99477.22;;;4.70;100.00
27984;BME280;15317;50.360;8.726;2023-04-25T20:18:58;99477.44;;;4.67;100.00
27984;BME280;15317;50.360;8.726;2023-04-25T20:24:04;99487.72;;;4.73;100.00
27984;BME280;15317;50.360;8.726;2023-04-25T20:29:07;99479.28;;;4.78;99.46
27984;BME280;15317;50.360;8.726;2023-04-25T20:34:10;99491.91;;;4.77;98.58
27984;BME280;15317;50.360;8.726;2023-04-25T20:39:15;99484.91;;;4.74;98.32
27984;BME280;15317;50.360;8.726;2023-04-25T20:44:18;99486.38;;;4.67;97.93
27984;BME280;15317;50.360;8.726;2023-04-25T20:49:24;99488.31;;;4.65;97.65
27984;BME280;15317;50.360;8.726;2023-04-25T20:54:28;99492.00;;;4.64;98.71
27984;BME280;15317;50.360;8.726;2023-04-25T20:59:32;99492.63;;;4.57;98.43
27984;BME280;15317;50.360;8.726;2023-04-25T21:04:35;99497.00;;;4.58;97.93
27984;BME280;15317;50.360;8.726;2023-04-25T21:09:40;99494.09;;;4.50;97.76
27984;BME280;15317;50.360;8.726;2023-04-25T21:14:44;99504.22;;;4.46;97.77
27984;BME280;15317;50.360;8.726;2023-04-25T21:19:47;99504.34;;;4.45;95.42
27984;BME280;15317;50.360;8.726;2023-04-25T21:24:51;99515.34;;;4.42;95.10
27984;BME280;15317;50.360;8.726;2023-04-25T21:29:57;99516.56;;;4.37;93.69
27984;BME280;15317;50.360;8.726;2023-04-25T21:35:00;99514.34;;;4.31;95.09
27984;BME280;15317;50.360;8.726;2023-04-25T21:40:06;99513.38;;;4.21;96.88
27984;BME280;15317;50.360;8.726;2023-04-25T21:45:10;99511.28;;;4.14;97.07
27984;BME280;15317;50.360;8.726;2023-04-25T21:50:13;99505.50;;;4.07;97.97
27984;BME280;15317;50.360;8.726;2023-04-25T21:55:17;99503.16;;;4.03;98.48
27984;BME280;15317;50.360;8.726;2023-04-25T22:00:23;99509.66;;;4.00;99.17
27984;BME280;15317;50.360;8.726;2023-04-25T22:05:28;99505.47;;;3.96;99.10
27984;BME280;15317;50.360;8.726;2023-04-25T22:10:33;99507.06;;;3.98;99.96
27984;BME280;15317;50.360;8.726;2023-04-25T22:15:36;99517.31;;;3.93;99.10
27984;BME280;15317;50.360;8.726;2023-04-25T22:20:39;99516.97;;;3.98;98.77
27984;BME280;15317;50.360;8.726;2023-04-25T22:25:44;99519.53;;;4.00;98.81
27984;BME280;15317;50.360;8.726;2023-04-25T22:30:47;99527.97;;;3.95;99.25
27984;BME280;15317;50.360;8.726;2023-04-25T22:35:50;99538.94;;;3.92;99.46
27984;BME280;15317;50.360;8.726;2023-04-25T22:40:54;99545.16;;;3.92;99.29
27984;BME280;15317;50.360;8.726;2023-04-25T22:45:57;99552.38;;;3.92;98.39
27984;BME280;15317;50.360;8.726;2023-04-25T22:51:01;99567.22;;;3.85;97.84
27984;BME280;15317;50.360;8.726;2023-04-25T22:56:05;99568.00;;;3.87;97.71
27984;BME280;15317;50.360;8.726;2023-04-25T23:01:08;99577.22;;;3.83;97.53
27984;BME280;15317;50.360;8.726;2023-04-25T23:06:12;99571.84;;;3.83;98.06
27984;BME280;15317;50.360;8.726;2023-04-25T23:11:16;99580.06;;;3.81;98.96
27984;BME280;15317;50.360;8.726;2023-04-25T23:16:21;99574.03;;;3.78;97.69
27984;BME280;15317;50.360;8.726;2023-04-25T23:21:24;99583.31;;;3.74;98.34
27984;BME280;15317;50.360;8.726;2023-04-25T23:26:28;99594.28;;;3.71;99.41
27984;BME280;15317;50.360;8.726;2023-04-25T23:31:32;99597.22;;;3.68;98.99
27984;BME280;15317;50.360;8.726;2023-04-25T23:36:35;99593.72;;;3.54;99.33
27984;BME280;15317;50.360;8.726;2023-04-25T23:41:40;99594.38;;;3.45;100.00
27984;BME280;15317;50.360;8.726;2023-04-25T23:46:43;99590.19;;;3.41;100.00
27984;BME280;15317;50.360;8.726;2023-04-25T23:51:46;99590.63;;;3.35;100.00
27984;BME280;15317;50.360;8.726;2023-04-25T23:56:51;99593.56;;;3.32;100.00
